createdAt,value
2023-03-21T00:01:05.221Z,6.90
2023-03-21T00:03:34.092Z,6.90
2023-03-21T00:06:09.028Z,6.90
2023-03-21T00:08:36.219Z,6.90
2023-03-21T00:11:06.433Z,6.90
2023-03-21T00:13:33.614Z,6.90
2023-03-21T00:16:13.347Z,6.90
2023-03-21T00:18:53.557Z,6.90
2023-03-21T00:24:09.911Z,6.80
2023-03-21T00:26:38.096Z,6.80
2023-03-21T00:29:04.788Z,6.70
2023-03-21T00:31:31.979Z,6.70
2023-03-21T00:33:58.656Z,6.80
2023-03-21T00:36:26.389Z,6.80
2023-03-21T00:38:53.726Z,6.80
2023-03-21T00:41:35.210Z,6.70
2023-03-21T00:44:07.562Z,6.70
2023-03-21T00:46:44.083Z,6.80
2023-03-21T00:49:14.198Z,6.70
2023-03-21T00:51:43.606Z,6.70
2023-03-21T00:54:12.920Z,6.70
2023-03-21T00:56:39.590Z,6.70
2023-03-21T00:59:06.820Z,6.70
2023-03-21T01:01:34.573Z,6.70
2023-03-21T01:04:14.093Z,6.70
2023-03-21T01:06:43.036Z,6.70
2023-03-21T01:09:19.082Z,6.70
2023-03-21T01:11:45.896Z,6.70
2023-03-21T01:14:22.602Z,6.60
2023-03-21T01:16:52.264Z,6.60
2023-03-21T01:19:27.536Z,6.60
2023-03-21T01:21:56.749Z,6.60
2023-03-21T01:24:23.878Z,6.60
2023-03-21T01:26:51.030Z,6.70
2023-03-21T01:29:18.159Z,6.60
2023-03-21T01:31:45.319Z,6.60
2023-03-21T01:34:12.042Z,6.50
2023-03-21T01:36:39.380Z,6.50
2023-03-21T01:39:06.706Z,6.50
2023-03-21T01:41:43.276Z,6.50
2023-03-21T01:44:16.247Z,6.40
2023-03-21T01:49:41.542Z,6.40
2023-03-21T01:55:00.893Z,6.40
2023-03-21T01:57:42.425Z,6.40
2023-03-21T02:00:15.702Z,6.30
2023-03-21T02:02:52.560Z,6.30
2023-03-21T02:05:27.288Z,6.30
2023-03-21T02:07:54.559Z,6.30
2023-03-21T02:10:21.481Z,6.30
2023-03-21T02:12:48.326Z,6.20
2023-03-21T02:15:16.491Z,6.20
2023-03-21T02:18:20.196Z,6.10
2023-03-21T02:21:23.167Z,6.00
2023-03-21T02:24:19.635Z,5.90
2023-03-21T02:27:24.296Z,5.80
2023-03-21T02:30:26.575Z,5.60
2023-03-21T02:33:31.582Z,5.60
2023-03-21T02:36:27.840Z,5.40
2023-03-21T02:39:01.552Z,5.30
2023-03-21T02:41:50.896Z,5.30
2023-03-21T02:44:50.272Z,5.10
2023-03-21T02:47:23.064Z,5.10
2023-03-21T02:50:12.600Z,5.00
2023-03-21T02:52:41.481Z,5.00
2023-03-21T02:55:14.559Z,5.00
2023-03-21T02:57:44.396Z,4.90
2023-03-21T03:00:17.781Z,4.90
2023-03-21T03:02:46.564Z,4.90
2023-03-21T03:05:21.880Z,4.80
2023-03-21T03:08:07.658Z,4.80
2023-03-21T03:11:06.968Z,4.80
2023-03-21T03:13:52.148Z,4.70
2023-03-21T03:16:27.625Z,4.70
2023-03-21T03:19:01.164Z,4.70
2023-03-21T03:21:35.952Z,4.80
2023-03-21T03:24:09.439Z,4.80
2023-03-21T03:26:55.222Z,4.80
2023-03-21T03:29:24.694Z,4.80
2023-03-21T03:32:07.440Z,4.90
2023-03-21T03:34:39.579Z,4.90
2023-03-21T03:37:11.056Z,4.90
2023-03-21T03:39:51.332Z,4.90
2023-03-21T03:42:28.571Z,4.90
2023-03-21T03:44:56.850Z,4.90
2023-03-21T03:47:56.436Z,4.90
2023-03-21T03:50:43.233Z,5.00
2023-03-21T03:53:43.194Z,5.00
2023-03-21T03:56:11.565Z,5.00
2023-03-21T03:59:04.837Z,4.90
2023-03-21T04:01:31.621Z,4.90
2023-03-21T04:04:12.371Z,4.90
2023-03-21T04:06:39.767Z,4.90
2023-03-21T04:09:19.128Z,4.80
2023-03-21T04:11:47.841Z,4.80
2023-03-21T04:14:15.065Z,4.70
2023-03-21T04:16:42.594Z,4.60
2023-03-21T04:19:09.362Z,4.50
2023-03-21T04:21:36.943Z,4.40
2023-03-21T04:24:03.811Z,4.40
2023-03-21T04:29:17.941Z,4.20
2023-03-21T04:31:44.714Z,4.00
2023-03-21T04:34:13.037Z,4.00
2023-03-21T04:36:44.175Z,3.80
2023-03-21T04:39:12.997Z,3.80
2023-03-21T04:41:41.026Z,3.70
2023-03-21T04:44:08.262Z,3.70
2023-03-21T04:46:36.133Z,3.60
2023-03-21T04:49:03.416Z,3.50
2023-03-21T04:51:30.638Z,3.60
2023-03-21T04:54:00.751Z,3.50
2023-03-21T04:56:36.589Z,3.50
2023-03-21T04:59:10.189Z,3.50
2023-03-21T05:01:37.508Z,3.50
2023-03-21T05:04:05.867Z,3.40
2023-03-21T05:06:33.537Z,3.40
2023-03-21T05:09:02.177Z,3.40
2023-03-21T05:11:30.982Z,3.40
2023-03-21T05:13:59.423Z,3.30
2023-03-21T05:16:30.493Z,3.30
2023-03-21T05:19:04.637Z,3.30
2023-03-21T05:21:41.558Z,3.40
2023-03-21T05:24:12.584Z,3.40
2023-03-21T05:26:40.897Z,3.50
2023-03-21T05:29:08.682Z,3.50
2023-03-21T05:31:36.193Z,3.60
2023-03-21T05:34:03.984Z,3.70
2023-03-21T05:36:33.967Z,3.80
2023-03-21T05:39:02.505Z,4.00
2023-03-21T05:41:29.711Z,4.10
2023-03-21T05:43:56.842Z,4.20
2023-03-21T05:46:23.532Z,4.40
2023-03-21T05:48:50.683Z,4.50
2023-03-21T05:51:18.435Z,4.70
2023-03-21T05:53:46.620Z,4.80
2023-03-21T05:56:13.295Z,5.00
2023-03-21T05:58:40.546Z,5.20
2023-03-21T06:01:07.763Z,5.40
2023-03-21T06:03:34.518Z,6.00
2023-03-21T06:06:03.982Z,6.40
2023-03-21T06:08:31.765Z,6.70
2023-03-21T06:10:58.429Z,6.90
2023-03-21T06:13:25.714Z,7.00
2023-03-21T06:15:53.324Z,7.00
2023-03-21T06:18:20.159Z,7.00
2023-03-21T06:20:46.811Z,7.20
2023-03-21T06:23:14.217Z,7.30
2023-03-21T06:25:41.086Z,7.40
2023-03-21T06:28:08.179Z,7.60
2023-03-21T06:30:34.972Z,7.80
2023-03-21T06:35:54.240Z,8.70
2023-03-21T06:38:21.992Z,9.60
2023-03-21T06:40:49.259Z,9.90
2023-03-21T06:43:17.185Z,10.30
2023-03-21T06:45:44.344Z,10.50
2023-03-21T06:48:11.524Z,10.40
2023-03-21T06:50:40.599Z,10.30
2023-03-21T06:53:07.275Z,10.20
2023-03-21T06:55:34.417Z,10.00
2023-03-21T06:58:01.536Z,9.60
2023-03-21T07:00:28.329Z,9.20
2023-03-21T07:02:55.070Z,9.00
2023-03-21T07:05:22.507Z,9.20
2023-03-21T07:07:50.068Z,9.50
2023-03-21T07:10:17.695Z,9.60
2023-03-21T07:12:44.416Z,9.70
2023-03-21T07:15:13.662Z,9.70
2023-03-21T07:17:40.378Z,9.70
2023-03-21T07:20:08.949Z,9.90
2023-03-21T07:22:35.996Z,10.00
2023-03-21T07:25:05.356Z,10.20
2023-03-21T07:27:34.948Z,10.30
2023-03-21T07:30:01.569Z,10.50
2023-03-21T07:32:30.352Z,10.70
2023-03-21T07:34:57.406Z,11.10
2023-03-21T07:37:24.073Z,11.40
2023-03-21T07:39:51.432Z,11.80
2023-03-21T07:42:19.362Z,12.00
2023-03-21T07:44:46.526Z,12.20
2023-03-21T07:47:13.118Z,12.40
2023-03-21T07:49:40.502Z,12.50
2023-03-21T07:52:07.851Z,12.30
2023-03-21T07:54:34.585Z,12.10
2023-03-21T07:57:01.750Z,11.90
2023-03-21T07:59:28.367Z,11.80
2023-03-21T08:01:55.479Z,11.60
2023-03-21T08:04:22.678Z,11.70
2023-03-21T08:06:51.100Z,11.90
2023-03-21T08:09:17.796Z,12.30
2023-03-21T08:11:44.458Z,12.80
2023-03-21T08:14:11.134Z,13.20
2023-03-21T08:16:37.807Z,13.70
2023-03-21T08:19:04.439Z,14.20
2023-03-21T08:21:31.073Z,14.60
2023-03-21T08:23:57.929Z,14.90
2023-03-21T08:26:26.440Z,15.50
2023-03-21T08:28:53.287Z,16.00
2023-03-21T08:31:23.427Z,16.80
2023-03-21T08:33:54.743Z,17.80
2023-03-21T08:36:22.821Z,20.00
2023-03-21T08:38:54.065Z,22.00
2023-03-21T08:41:22.367Z,22.80
2023-03-21T08:43:49.167Z,23.60
2023-03-21T08:46:16.361Z,23.90
2023-03-21T08:48:43.048Z,24.10
2023-03-21T08:51:09.661Z,25.00
2023-03-21T08:53:36.538Z,26.40
2023-03-21T08:56:03.203Z,27.70
2023-03-21T08:58:29.885Z,28.00
2023-03-21T09:00:57.013Z,28.00
2023-03-21T09:03:23.678Z,28.00
2023-03-21T09:05:53.905Z,27.60
2023-03-21T09:08:23.972Z,27.40
2023-03-21T09:10:54.826Z,27.90
2023-03-21T09:13:22.292Z,28.70
2023-03-21T09:15:49.381Z,29.00
2023-03-21T09:18:18.408Z,28.50
2023-03-21T09:20:46.623Z,27.70
2023-03-21T09:23:14.718Z,26.70
2023-03-21T09:25:42.500Z,26.70
2023-03-21T09:28:09.725Z,26.20
2023-03-21T09:30:37.170Z,25.50
2023-03-21T09:33:08.602Z,24.50
2023-03-21T09:35:36.210Z,24.10
2023-03-21T09:38:04.084Z,22.90
2023-03-21T09:40:56.160Z,21.90
2023-03-21T09:43:34.403Z,20.70
2023-03-21T09:46:15.314Z,20.60
2023-03-21T09:48:58.125Z,20.30
2023-03-21T09:51:32.922Z,20.20
2023-03-21T09:54:07.657Z,20.10
2023-03-21T09:56:38.517Z,20.20
2023-03-21T09:59:09.181Z,19.70
2023-03-21T10:01:45.186Z,19.70
2023-03-21T10:04:17.690Z,20.00
2023-03-21T10:06:48.378Z,20.20
2023-03-21T10:09:22.872Z,20.80
2023-03-21T10:12:03.699Z,22.00
2023-03-21T10:14:38.964Z,23.40
2023-03-21T10:17:29.015Z,25.00
2023-03-21T10:20:14.173Z,26.20
2023-03-21T10:22:41.768Z,26.30
2023-03-21T10:25:13.045Z,26.60
2023-03-21T10:27:40.112Z,27.70
2023-03-21T10:30:11.141Z,29.20
2023-03-21T10:32:37.829Z,30.90
2023-03-21T10:35:05.092Z,31.50
2023-03-21T10:37:32.777Z,31.70
2023-03-21T10:39:59.946Z,30.60
2023-03-21T10:42:30.840Z,30.60
2023-03-21T10:44:58.312Z,30.20
2023-03-21T10:47:33.948Z,30.50
2023-03-21T10:50:13.414Z,30.20
2023-03-21T10:52:49.810Z,30.30
2023-03-21T10:55:18.645Z,30.60
2023-03-21T10:57:46.861Z,30.90
2023-03-21T11:00:23.367Z,30.40
2023-03-21T11:02:52.644Z,30.90
2023-03-21T11:05:33.224Z,31.40
2023-03-21T11:08:03.979Z,30.90
2023-03-21T11:10:38.229Z,30.60
2023-03-21T11:13:18.944Z,30.80
2023-03-21T11:15:58.510Z,31.50
2023-03-21T11:18:27.418Z,32.30
2023-03-21T11:20:57.072Z,33.20
2023-03-21T11:23:30.357Z,33.70
2023-03-21T11:26:12.396Z,33.20
2023-03-21T11:28:41.730Z,32.80
2023-03-21T11:31:09.353Z,32.70
2023-03-21T11:34:07.611Z,33.30
2023-03-21T11:36:41.766Z,33.60
2023-03-21T11:39:11.522Z,32.30
2023-03-21T11:41:41.603Z,31.60
2023-03-21T11:44:25.586Z,30.90
2023-03-21T11:46:54.266Z,29.90
2023-03-21T11:49:21.952Z,29.40
2023-03-21T11:52:05.640Z,29.40
2023-03-21T11:55:06.521Z,29.10
2023-03-21T11:57:58.008Z,28.60
2023-03-21T12:00:34.870Z,28.80
2023-03-21T12:03:15.797Z,29.10
2023-03-21T12:05:54.858Z,28.80
2023-03-21T12:09:00.968Z,28.90
2023-03-21T12:11:34.336Z,27.20
2023-03-21T12:14:23.247Z,27.00
2023-03-21T12:17:06.986Z,26.80
2023-03-21T12:19:53.279Z,27.10
2023-03-21T12:22:38.662Z,27.90
2023-03-21T12:25:17.759Z,28.70
2023-03-21T12:28:02.849Z,29.80
2023-03-21T12:30:33.354Z,29.00
2023-03-21T12:33:36.618Z,28.50
2023-03-21T12:36:28.240Z,27.50
2023-03-21T12:39:23.340Z,27.10
2023-03-21T12:42:18.271Z,26.60
2023-03-21T12:44:51.138Z,26.30
2023-03-21T12:47:26.422Z,27.00
2023-03-21T12:50:09.196Z,28.50
2023-03-21T12:52:43.493Z,29.00
2023-03-21T12:55:24.722Z,29.20
2023-03-21T12:58:12.062Z,29.10
2023-03-21T13:00:54.409Z,29.20
2023-03-21T13:03:37.453Z,29.00
2023-03-21T13:06:09.275Z,28.00
2023-03-21T13:08:39.112Z,28.30
2023-03-21T13:11:07.753Z,28.20
2023-03-21T13:13:39.645Z,28.70
2023-03-21T13:16:37.309Z,29.10
2023-03-21T13:19:35.716Z,28.10
2023-03-21T13:22:31.362Z,28.30
2023-03-21T13:25:17.715Z,28.30
2023-03-21T13:27:54.832Z,28.90
2023-03-21T13:30:29.344Z,30.10
2023-03-21T13:33:13.637Z,30.30
2023-03-21T13:35:43.590Z,29.70
2023-03-21T13:38:14.324Z,29.70
2023-03-21T13:40:45.964Z,29.50
2023-03-21T13:43:34.000Z,29.00
2023-03-21T13:46:46.717Z,28.30
2023-03-21T13:49:34.635Z,28.30
2023-03-21T13:52:12.258Z,28.00
2023-03-21T13:54:39.041Z,27.80
2023-03-21T13:57:06.882Z,27.50
2023-03-21T13:59:45.110Z,26.40
2023-03-21T14:02:32.236Z,25.40
2023-03-21T14:05:20.275Z,24.50
2023-03-21T14:07:52.821Z,23.40
2023-03-21T14:10:33.443Z,22.80
2023-03-21T14:13:01.894Z,22.00
2023-03-21T14:15:46.405Z,20.90
2023-03-21T14:18:55.248Z,20.00
2023-03-21T14:21:26.458Z,19.30
2023-03-21T14:24:20.676Z,18.90
2023-03-21T14:26:50.765Z,18.80
2023-03-21T14:29:46.131Z,18.60
2023-03-21T14:32:21.889Z,18.30
2023-03-21T14:34:49.692Z,18.00
2023-03-21T14:37:41.602Z,17.70
2023-03-21T14:40:23.168Z,17.40
2023-03-21T14:42:51.382Z,17.20
2023-03-21T14:45:29.640Z,17.20
2023-03-21T14:47:57.787Z,17.10
2023-03-21T14:50:32.107Z,16.80
2023-03-21T14:52:59.644Z,16.70
2023-03-21T14:55:27.329Z,16.50
2023-03-21T14:57:56.350Z,16.70
2023-03-21T15:00:30.553Z,16.60
2023-03-21T15:02:59.656Z,16.50
2023-03-21T15:05:37.659Z,16.50
2023-03-21T15:08:20.675Z,16.50
2023-03-21T15:11:07.338Z,16.70
2023-03-21T15:13:51.461Z,16.70
2023-03-21T15:16:19.298Z,16.60
2023-03-21T15:18:46.702Z,16.50
2023-03-21T15:21:22.396Z,16.50
2023-03-21T15:23:53.647Z,16.50
2023-03-21T15:26:24.340Z,16.40
2023-03-21T15:28:56.971Z,16.20
2023-03-21T15:31:29.273Z,15.90
2023-03-21T15:33:56.565Z,15.90
2023-03-21T15:36:31.992Z,15.90
2023-03-21T15:39:03.100Z,15.70
2023-03-21T15:41:31.925Z,15.60
2023-03-21T15:44:12.389Z,15.40
2023-03-21T15:46:48.467Z,15.30
2023-03-21T15:49:15.675Z,15.10
2023-03-21T15:52:02.641Z,15.00
2023-03-21T15:54:36.985Z,14.80
2023-03-21T15:57:20.113Z,14.60
2023-03-21T15:59:47.828Z,14.40
2023-03-21T16:02:21.631Z,14.30
2023-03-21T16:05:00.927Z,14.30
2023-03-21T16:07:28.350Z,14.10
2023-03-21T16:10:01.360Z,14.20
2023-03-21T16:12:27.985Z,14.10
2023-03-21T16:14:55.517Z,13.90
2023-03-21T16:17:39.797Z,13.90
2023-03-21T16:20:35.887Z,13.80
2023-03-21T16:23:03.428Z,13.80
2023-03-21T16:25:31.855Z,13.70
2023-03-21T16:27:59.228Z,13.70
2023-03-21T16:30:26.235Z,13.70
2023-03-21T16:33:44.565Z,13.60
2023-03-21T16:36:19.704Z,13.60
2023-03-21T16:38:47.878Z,13.50
2023-03-21T16:41:15.978Z,13.40
2023-03-21T16:43:43.955Z,13.40
2023-03-21T16:46:12.992Z,13.40
2023-03-21T16:48:40.030Z,13.40
2023-03-21T16:51:07.176Z,13.30
2023-03-21T16:53:33.797Z,13.30
2023-03-21T16:56:02.992Z,13.20
2023-03-21T16:58:29.839Z,13.10
2023-03-21T17:00:57.039Z,13.00
2023-03-21T17:03:24.118Z,12.90
2023-03-21T17:05:50.793Z,12.80
2023-03-21T17:08:20.049Z,12.80
2023-03-21T17:10:46.941Z,12.70
2023-03-21T17:13:13.799Z,12.60
2023-03-21T17:15:41.462Z,12.50
2023-03-21T17:18:08.384Z,12.50
2023-03-21T17:20:38.262Z,12.40
2023-03-21T17:23:05.952Z,12.30
2023-03-21T17:25:34.692Z,12.30
2023-03-21T17:28:01.741Z,12.10
2023-03-21T17:30:32.232Z,12.10
2023-03-21T17:32:59.507Z,12.00
2023-03-21T17:35:26.943Z,11.90
2023-03-21T17:37:54.291Z,11.80
2023-03-21T17:40:23.882Z,11.80
2023-03-21T17:42:52.197Z,11.70
2023-03-21T17:45:19.602Z,11.70
2023-03-21T17:47:46.598Z,11.60
2023-03-21T17:50:19.566Z,11.60
2023-03-21T17:52:48.065Z,11.60
2023-03-21T17:55:21.434Z,11.50
2023-03-21T17:57:49.408Z,11.50
2023-03-21T18:00:29.195Z,11.50
2023-03-21T18:02:57.162Z,11.50
2023-03-21T18:05:37.495Z,11.40
2023-03-21T18:08:12.789Z,11.40
2023-03-21T18:10:40.856Z,11.40
2023-03-21T18:13:07.855Z,11.30
2023-03-21T18:15:35.929Z,11.30
2023-03-21T18:18:04.634Z,11.30
2023-03-21T18:20:53.820Z,11.30
2023-03-21T18:23:22.106Z,11.20
2023-03-21T18:25:49.260Z,11.20
2023-03-21T18:28:20.506Z,11.20
2023-03-21T18:33:36.946Z,11.10
2023-03-21T18:36:07.373Z,11.10
2023-03-21T18:38:35.596Z,11.00
2023-03-21T18:41:02.827Z,11.00
2023-03-21T18:46:17.513Z,10.90
2023-03-21T18:48:44.548Z,10.90
2023-03-21T18:51:11.461Z,10.90
2023-03-21T18:53:39.117Z,10.90
2023-03-21T18:59:27.174Z,10.90
2023-03-21T19:01:54.233Z,10.80
2023-03-21T19:04:29.301Z,10.80
2023-03-21T19:06:57.631Z,10.70
2023-03-21T19:09:29.326Z,10.60
2023-03-21T19:11:58.470Z,10.50
2023-03-21T19:14:25.683Z,10.50
2023-03-21T19:19:40.607Z,10.50
2023-03-21T19:22:07.548Z,10.40
2023-03-21T19:24:34.262Z,10.40
2023-03-21T19:27:00.888Z,10.30
2023-03-21T19:29:27.567Z,10.30
2023-03-21T19:31:54.286Z,10.30
2023-03-21T19:34:21.172Z,10.20
2023-03-21T19:36:52.204Z,10.20
2023-03-21T19:39:22.217Z,10.20
2023-03-21T19:41:50.245Z,10.20
2023-03-21T19:44:17.296Z,10.20
2023-03-21T19:46:44.270Z,10.10
2023-03-21T19:49:11.138Z,10.10
2023-03-21T19:51:38.070Z,10.00
2023-03-21T19:54:05.971Z,10.00
2023-03-21T19:56:34.513Z,9.90
2023-03-21T19:59:02.956Z,9.90
2023-03-21T20:01:32.467Z,9.90
2023-03-21T20:03:59.816Z,9.90
2023-03-21T20:06:27.562Z,9.90
2023-03-21T20:11:41.667Z,9.90
2023-03-21T20:14:08.659Z,9.90
2023-03-21T20:16:37.038Z,9.80
2023-03-21T20:19:06.022Z,9.80
2023-03-21T20:21:42.286Z,9.70
2023-03-21T20:24:14.703Z,9.70
2023-03-21T20:26:41.682Z,9.70
2023-03-21T20:29:56.385Z,9.60
2023-03-21T20:31:55.806Z,9.60
2023-03-21T20:34:22.968Z,9.60
2023-03-21T20:36:50.323Z,9.50
2023-03-21T20:39:17.359Z,9.50
2023-03-21T20:41:44.309Z,9.50
2023-03-21T20:46:57.743Z,9.40
2023-03-21T20:49:24.901Z,9.30
2023-03-21T20:54:38.753Z,9.30
2023-03-21T20:57:05.678Z,9.20
2023-03-21T20:59:32.600Z,9.30
2023-03-21T21:02:00.034Z,9.20
2023-03-21T21:05:05.091Z,9.20
2023-03-21T21:07:22.671Z,9.20
2023-03-21T21:09:50.252Z,9.20
2023-03-21T21:12:19.273Z,9.10
2023-03-21T21:14:48.057Z,9.10
2023-03-21T21:17:31.129Z,9.00
2023-03-21T21:20:16.848Z,9.00
2023-03-21T21:22:58.502Z,8.90
2023-03-21T21:25:26.001Z,8.90
2023-03-21T21:27:53.935Z,8.80
2023-03-21T21:30:20.865Z,8.80
2023-03-21T21:32:47.503Z,8.80
2023-03-21T21:35:14.495Z,8.80
2023-03-21T21:37:41.977Z,8.80
2023-03-21T21:40:13.913Z,8.80
2023-03-21T21:42:42.326Z,8.80
2023-03-21T21:45:10.826Z,8.80
2023-03-21T21:47:38.109Z,8.90
2023-03-21T21:50:06.303Z,8.90
2023-03-21T21:52:32.908Z,8.90
2023-03-21T21:55:02.252Z,8.90
2023-03-21T21:57:33.978Z,8.90
2023-03-21T22:00:06.574Z,8.80
2023-03-21T22:02:33.456Z,8.80
2023-03-21T22:05:00.397Z,8.70
2023-03-21T22:07:27.576Z,8.60
2023-03-21T22:09:54.494Z,8.60
2023-03-21T22:12:21.640Z,8.60
2023-03-21T22:14:48.575Z,8.60
2023-03-21T22:17:15.261Z,8.60
2023-03-21T22:19:42.597Z,8.60
2023-03-21T22:22:10.445Z,8.60
2023-03-21T22:24:37.482Z,8.50
2023-03-21T22:27:04.935Z,8.50
2023-03-21T22:29:31.602Z,8.60
2023-03-21T22:31:58.343Z,8.60
2023-03-21T22:34:26.822Z,8.50
2023-03-21T22:36:55.765Z,8.50
2023-03-21T22:39:26.661Z,8.50
2023-03-21T22:41:54.490Z,8.50
2023-03-21T22:44:21.225Z,8.50
2023-03-21T22:46:48.099Z,8.50
2023-03-21T22:49:15.546Z,8.50
2023-03-21T22:51:43.777Z,8.40
2023-03-21T22:54:10.683Z,8.40
2023-03-21T22:56:37.672Z,8.40
2023-03-21T22:59:04.634Z,8.30
2023-03-21T23:01:31.829Z,8.30
2023-03-21T23:03:58.574Z,8.30
2023-03-21T23:06:25.292Z,8.20
2023-03-21T23:08:52.144Z,8.10
2023-03-21T23:11:19.262Z,8.10
2023-03-21T23:13:53.620Z,8.00
2023-03-21T23:16:25.684Z,7.90
2023-03-21T23:18:53.726Z,7.90
2023-03-21T23:21:23.199Z,7.90
2023-03-21T23:23:51.419Z,7.90
2023-03-21T23:26:20.197Z,7.90
2023-03-21T23:28:48.376Z,7.90
2023-03-21T23:31:17.514Z,7.80
2023-03-21T23:33:44.558Z,7.70
2023-03-21T23:36:14.852Z,7.60
2023-03-21T23:38:41.716Z,7.50
2023-03-21T23:41:10.412Z,7.40
2023-03-21T23:43:37.593Z,7.20
2023-03-21T23:46:05.290Z,7.10
2023-03-21T23:48:32.474Z,7.00
2023-03-21T23:50:59.257Z,7.00
2023-03-21T23:53:26.556Z,6.90
2023-03-21T23:55:53.483Z,6.80
2023-03-21T23:58:23.424Z,6.70
